Time;durP1;ratioP1;P1;durP2;ratioP2;P2;SDS_P1;SDS_P2;PMS_P1;PMS_P2;Temp;Humidity;BMP_temperature;BMP_pressure;BME280_temperature;BME280_humidity;BME280_pressure;Samples;Min_cycle;Max_cycle;Signal;HPM_P1;HPM_P2
2023/01/31 00:00:06;;;;;;;17.98;3.97;;;;;;;6.23;58.34;101778.25;682972;28;1131;-84
2023/01/31 00:00:27;;;;;;;15.90;3.65;;;;;;;6.11;58.48;101765.44;680263;29;917;-83
2023/01/31 00:00:48;;;;;;;12.90;3.40;;;;;;;6.12;58.57;101762.94;685385;28;970;-84
2023/01/31 00:01:10;;;;;;;14.55;3.63;;;;;;;6.03;58.49;101750.31;688132;28;1636;-84
2023/01/31 00:01:34;;;;;;;13.10;3.38;;;;;;;6.15;58.53;101775.22;685565;28;1088;-83
2023/01/31 00:01:55;;;;;;;15.15;3.60;;;;;;;6.05;58.93;101771.13;688361;28;1320;-84
2023/01/31 00:02:15;;;;;;;13.82;3.60;;;;;;;6.02;58.59;101770.97;685580;28;985;-84
2023/01/31 00:02:51;;;;;;;12.33;3.60;;;;;;;5.99;58.38;101753.50;685754;28;1198;-84
2023/01/31 00:03:12;;;;;;;11.40;3.00;;;;;;;5.96;58.59;101758.47;682891;29;993;-83
2023/01/31 00:03:32;;;;;;;12.20;2.92;;;;;;;6.05;58.35;101763.34;682813;29;1458;-84
2023/01/31 00:03:55;;;;;;;17.80;3.22;;;;;;;6.07;58.70;101768.66;688258;28;1159;-84
2023/01/31 00:04:16;;;;;;;16.67;3.60;;;;;;;6.06;58.64;101766.88;682752;28;1353;-84
2023/01/31 00:04:37;;;;;;;20.90;3.95;;;;;;;5.99;58.82;101769.06;680093;29;1364;-84
2023/01/31 00:04:57;;;;;;;18.60;3.75;;;;;;;5.96;58.81;101761.06;685563;28;1220;-83
2023/01/31 00:05:18;;;;;;;19.75;3.33;;;;;;;5.89;59.42;101762.41;682834;29;1092;-84
2023/01/31 00:05:39;;;;;;;16.60;3.30;;;;;;;5.98;59.19;101776.72;682805;29;1161;-84
2023/01/31 00:06:19;;;;;;;17.17;3.40;;;;;;;6.03;59.09;101773.63;677908;29;1140;-84
2023/01/31 00:06:42;;;;;;;18.92;4.05;;;;;;;5.93;59.08;101763.47;680053;29;1100;-84
2023/01/31 00:07:03;;;;;;;18.02;4.45;;;;;;;6.02;59.12;101769.25;680151;29;1427;-84
2023/01/31 00:07:24;;;;;;;19.33;4.20;;;;;;;5.98;59.19;101762.09;680296;29;1087;-84
2023/01/31 00:07:46;;;;;;;17.55;4.03;;;;;;;6.01;59.19;101757.09;680153;29;1115;-84
2023/01/31 00:08:07;;;;;;;16.73;3.90;;;;;;;6.01;59.23;101767.44;677560;29;1111;-84
2023/01/31 00:08:27;;;;;;;16.05;3.63;;;;;;;5.99;58.93;101762.97;680071;29;1307;-83
2023/01/31 00:08:50;;;;;;;17.03;3.50;;;;;;;6.03;58.62;101762.38;685519;28;1096;-84
2023/01/31 00:09:11;;;;;;;17.70;3.58;;;;;;;5.96;58.80;101752.41;682821;29;1468;-85
2023/01/31 00:09:32;;;;;;;18.75;3.90;;;;;;;6.01;58.86;101762.28;682789;28;1359;-84
2023/01/31 00:09:52;;;;;;;19.27;4.10;;;;;;;5.93;59.04;101752.22;680397;29;811;-84
2023/01/31 00:10:13;;;;;;;18.13;4.10;;;;;;;5.90;58.79;101758.13;688139;28;1194;-84
2023/01/31 00:10:35;;;;;;;18.75;3.90;;;;;;;5.98;59.11;101767.28;688064;28;1292;-83
2023/01/31 00:10:58;;;;;;;17.58;3.75;;;;;;;5.86;59.44;101766.47;688414;28;863;-84
2023/01/31 00:11:21;;;;;;;13.45;3.30;;;;;;;5.93;59.31;101767.75;688085;28;1175;-84
2023/01/31 00:11:42;;;;;;;11.65;3.10;;;;;;;5.99;59.08;101774.25;685549;28;1206;-84
2023/01/31 00:12:03;;;;;;;12.95;3.50;;;;;;;5.94;59.25;101765.28;685556;28;1268;-84
2023/01/31 00:12:23;;;;;;;16.13;4.03;;;;;;;5.88;59.47;101764.88;684958;28;1150;-83
2023/01/31 00:12:44;;;;;;;18.03;4.00;;;;;;;5.96;59.20;101783.53;677557;29;1305;-84
2023/01/31 00:13:04;;;;;;;17.27;4.22;;;;;;;5.85;59.60;101760.44;677645;29;1061;-84
2023/01/31 00:13:28;;;;;;;18.52;4.22;;;;;;;5.98;59.07;101777.63;680344;29;1208;-84
2023/01/31 00:13:49;;;;;;;17.90;4.50;;;;;;;5.97;59.12;101775.84;677611;29;1352;-84
2023/01/31 00:14:16;;;;;;;15.55;4.30;;;;;;;5.90;59.71;101763.31;680165;29;1056;-84
2023/01/31 00:14:37;;;;;;;15.35;4.22;;;;;;;5.95;59.21;101771.38;680115;29;1441;-84
2023/01/31 00:14:58;;;;;;;11.17;3.57;;;;;;;5.92;59.24;101774.66;677769;29;769;-84
2023/01/31 00:15:19;;;;;;;12.23;3.90;;;;;;;5.91;59.32;101772.88;680193;29;1132;-84
2023/01/31 00:15:39;;;;;;;14.23;3.88;;;;;;;5.94;59.44;101775.63;680222;29;1109;-84
2023/01/31 00:16:01;;;;;;;16.87;4.20;;;;;;;5.90;59.44;101752.94;680302;29;1244;-84
2023/01/31 00:16:22;;;;;;;14.98;3.88;;;;;;;5.94;59.25;101773.03;682744;29;1327;-84
2023/01/31 00:16:43;;;;;;;16.08;3.72;;;;;;;5.93;59.32;101760.00;685476;28;1096;-85
2023/01/31 00:17:03;;;;;;;17.33;4.10;;;;;;;5.91;59.32;101771.97;682695;28;1281;-84
2023/01/31 00:17:24;;;;;;;19.00;4.10;;;;;;;5.85;59.21;101755.25;680085;29;1300;-84
2023/01/31 00:17:44;;;;;;;15.93;4.10;;;;;;;5.89;59.13;101771.84;680212;29;1064;-84
2023/01/31 00:18:05;;;;;;;17.77;4.43;;;;;;;5.81;59.14;101761.00;681962;29;954;-84
2023/01/31 00:18:26;;;;;;;18.60;4.70;;;;;;;5.81;59.50;101758.44;682567;29;740;-83
2023/01/31 00:18:47;;;;;;;19.73;4.50;;;;;;;5.87;58.95;101778.63;685612;28;1126;-83
2023/01/31 00:19:08;;;;;;;16.83;3.70;;;;;;;5.79;59.18;101759.13;685443;28;1235;-84
2023/01/31 00:19:28;;;;;;;16.70;3.80;;;;;;;5.81;59.33;101762.69;685187;28;1040;-84
2023/01/31 00:19:49;;;;;;;14.60;3.47;;;;;;;5.83;59.17;101768.91;682380;29;1190;-84
2023/01/31 00:20:11;;;;;;;13.83;3.20;;;;;;;5.83;59.62;101771.50;685621;28;1178;-84
2023/01/31 00:20:31;;;;;;;12.95;3.20;;;;;;;5.79;59.17;101764.31;682743;29;1104;-83
2023/01/31 00:20:52;;;;;;;14.60;3.20;;;;;;;5.73;59.37;101763.13;688266;28;1197;-84
2023/01/31 00:21:15;;;;;;;15.38;3.50;;;;;;;5.73;59.40;101770.00;685531;28;1086;-84
2023/01/31 00:21:35;;;;;;;13.88;3.33;;;;;;;5.65;59.83;101761.72;682718;29;1136;-84
2023/01/31 00:21:56;;;;;;;12.87;3.50;;;;;;;5.67;59.54;101770.50;682924;29;1165;-84
2023/01/31 00:22:17;;;;;;;12.18;3.80;;;;;;;5.71;59.45;101762.13;682789;29;1195;-85
2023/01/31 00:22:38;;;;;;;13.65;4.07;;;;;;;5.63;59.84;101760.72;680072;29;1068;-84
2023/01/31 00:22:58;;;;;;;15.45;3.92;;;;;;;5.69;59.91;101768.91;680162;29;726;-84
2023/01/31 00:23:19;;;;;;;15.20;3.63;;;;;;;5.63;60.01;101745.19;680139;29;1329;-85
2023/01/31 00:23:42;;;;;;;14.20;3.33;;;;;;;5.67;59.92;101759.22;682729;29;1273;-85
2023/01/31 00:24:04;;;;;;;13.13;3.92;;;;;;;5.63;60.23;101757.25;682995;29;1193;-85
2023/01/31 00:24:25;;;;;;;19.73;4.38;;;;;;;5.67;60.13;101765.31;682795;29;1199;-84
2023/01/31 00:24:45;;;;;;;26.00;4.40;;;;;;;5.69;60.04;101766.31;682883;29;1100;-85
2023/01/31 00:25:06;;;;;;;28.15;3.97;;;;;;;5.71;60.19;101767.28;682757;29;1296;-84
2023/01/31 00:25:27;;;;;;;20.27;3.50;;;;;;;5.65;59.87;101761.72;681038;29;1233;-84
2023/01/31 00:25:48;;;;;;;13.27;3.50;;;;;;;5.56;60.25;101767.22;682922;28;1211;-84
2023/01/31 00:26:23;;;;;;;12.15;3.33;;;;;;;5.72;60.04;101779.44;682919;29;1922;-84
2023/01/31 00:26:43;;;;;;;15.30;3.20;;;;;;;5.74;60.25;101777.88;682560;29;1199;-84
2023/01/31 00:27:04;;;;;;;18.00;3.50;;;;;;;5.66;60.33;101775.56;680235;29;1049;-85
2023/01/31 00:27:24;;;;;;;18.63;3.67;;;;;;;5.73;59.93;101768.31;677531;29;1056;-84
2023/01/31 00:27:46;;;;;;;19.13;3.72;;;;;;;5.71;60.37;101771.59;677610;29;1202;-84
2023/01/31 00:28:07;;;;;;;19.47;3.97;;;;;;;5.65;60.10;101761.72;682769;28;1150;-84
2023/01/31 00:28:28;;;;;;;17.23;3.75;;;;;;;5.80;59.85;101781.63;677521;29;1276;-84
2023/01/31 00:28:50;;;;;;;16.40;4.03;;;;;;;5.75;60.09;101779.66;682800;29;1164;-85
2023/01/31 00:29:12;;;;;;;14.60;3.83;;;;;;;5.71;60.29;101767.28;682712;29;1389;-83
2023/01/31 00:29:32;;;;;;;14.52;3.90;;;;;;;5.77;59.88;101771.97;682668;29;1325;-83
2023/01/31 00:29:53;;;;;;;13.70;3.70;;;;;;;5.73;60.21;101768.31;685588;28;1031;-82
2023/01/31 00:30:14;;;;;;;13.20;3.95;;;;;;;5.74;60.54;101772.69;682633;29;1112;-82
2023/01/31 00:30:34;;;;;;;13.02;4.25;;;;;;;5.81;60.52;101779.16;680146;29;1030;-82
2023/01/31 00:30:57;;;;;;;11.67;4.07;;;;;;;5.82;60.32;101780.06;682929;29;1184;-82
2023/01/31 00:31:20;;;;;;;12.75;3.88;;;;;;;5.92;60.32;101772.06;677517;29;1030;-83
2023/01/31 00:31:43;;;;;;;16.75;3.70;;;;;;;5.90;60.32;101768.50;677432;29;1401;-83
2023/01/31 00:32:04;;;;;;;17.75;3.90;;;;;;;6.01;60.35;101774.31;677551;29;1064;-82
2023/01/31 00:32:25;;;;;;;16.20;3.60;;;;;;;5.98;59.96;101768.97;680093;29;1102;-83
2023/01/31 00:32:46;;;;;;;15.65;4.10;;;;;;;6.01;60.05;101762.28;682748;29;1499;-83
2023/01/31 00:33:06;;;;;;;17.47;3.93;;;;;;;6.03;59.75;101764.97;682755;29;1080;-83
2023/01/31 00:33:27;;;;;;;16.40;3.95;;;;;;;6.02;59.79;101764.06;682861;29;1373;-83
2023/01/31 00:33:49;;;;;;;16.60;3.60;;;;;;;6.12;59.83;101778.50;680132;28;1185;-83
2023/01/31 00:34:10;;;;;;;15.30;3.97;;;;;;;6.11;59.85;101770.63;682634;29;1241;-83
2023/01/31 00:34:31;;;;;;;14.63;3.90;;;;;;;6.10;59.67;101758.47;685306;28;1436;-82
2023/01/31 00:34:53;;;;;;;14.80;4.30;;;;;;;6.07;59.47;101758.28;682840;29;1581;-83
2023/01/31 00:35:14;;;;;;;15.70;4.30;;;;;;;6.02;59.56;101758.88;685343;28;1194;-82
2023/01/31 00:35:39;;;;;;;16.27;4.57;;;;;;;6.11;59.64;101761.16;680028;29;1201;-83
2023/01/31 00:36:04;;;;;;;17.23;4.05;;;;;;;6.09;59.88;101760.19;677564;29;1405;-83
2023/01/31 00:36:28;;;;;;;21.13;4.30;;;;;;;6.24;59.96;101774.88;679935;29;843;-82
2023/01/31 00:36:50;;;;;;;19.08;4.45;;;;;;;6.19;59.72;101772.00;679894;29;1572;-83
2023/01/31 00:37:11;;;;;;;19.35;4.55;;;;;;;6.18;59.38;101762.44;679984;29;1420;-82
2023/01/31 00:37:32;;;;;;;20.77;4.60;;;;;;;6.14;59.62;101763.06;679939;29;1106;-83
2023/01/31 00:37:53;;;;;;;17.10;4.32;;;;;;;6.07;59.48;101758.28;680336;29;674;-83
2023/01/31 00:38:13;;;;;;;20.27;4.93;;;;;;;6.10;59.85;101761.97;682781;29;1365;-82
2023/01/31 00:38:34;;;;;;;20.03;5.17;;;;;;;6.23;59.45;101773.06;682726;28;1127;-83
2023/01/31 00:38:57;;;;;;;22.35;5.50;;;;;;;6.21;59.43;101766.91;682916;29;1320;-83
2023/01/31 00:39:18;;;;;;;21.55;4.65;;;;;;;6.19;59.78;101760.75;685377;28;1254;-83
2023/01/31 00:39:38;;;;;;;23.58;4.88;;;;;;;6.26;59.53;101779.34;680110;29;1208;-83
2023/01/31 00:39:59;;;;;;;22.07;4.30;;;;;;;6.22;59.34;101764.41;682820;28;1188;-83
2023/01/31 00:40:20;;;;;;;17.67;4.33;;;;;;;6.25;59.13;101766.28;682700;29;1222;-83
2023/01/31 00:40:41;;;;;;;20.15;3.92;;;;;;;6.18;59.47;101759.84;685344;28;1319;-83
2023/01/31 00:41:03;;;;;;;17.67;3.70;;;;;;;6.24;59.42;101770.59;685562;28;1123;-83
2023/01/31 00:41:26;;;;;;;21.85;3.70;;;;;;;6.21;59.70;101775.59;680068;28;1362;-83
2023/01/31 00:41:46;;;;;;;18.85;3.70;;;;;;;6.33;59.63;101777.13;680118;29;1195;-82
2023/01/31 00:42:07;;;;;;;21.13;3.97;;;;;;;6.22;59.68;101764.41;677505;29;1218;-83
2023/01/31 00:42:27;;;;;;;18.50;4.50;;;;;;;6.24;59.54;101767.09;677590;29;1274;-82
2023/01/31 00:42:48;;;;;;;18.33;4.70;;;;;;;6.26;59.63;101768.09;680241;29;934;-83
2023/01/31 00:43:09;;;;;;;16.80;4.60;;;;;;;6.25;59.61;101766.28;682823;29;1207;-82
2023/01/31 00:43:31;;;;;;;14.65;4.07;;;;;;;6.35;59.73;101784.22;682782;28;1245;-82
2023/01/31 00:43:52;;;;;;;16.45;4.47;;;;;;;6.22;59.41;101759.25;685536;28;1146;-83
2023/01/31 00:44:12;;;;;;;19.75;4.32;;;;;;;6.23;59.86;101753.25;682611;28;1311;-83
2023/01/31 00:44:33;;;;;;;22.42;4.30;;;;;;;6.25;59.60;101772.38;685443;28;1144;-83
2023/01/31 00:44:54;;;;;;;21.03;3.83;;;;;;;6.16;59.65;101756.25;682996;29;814;-83
2023/01/31 00:45:15;;;;;;;18.95;3.75;;;;;;;6.17;59.61;101768.41;682863;28;1005;-82
2023/01/31 00:45:35;;;;;;;15.60;3.95;;;;;;;6.15;59.43;101754.47;685465;28;1404;-83
2023/01/31 00:45:56;;;;;;;15.48;3.70;;;;;;;6.12;59.45;101751.66;680276;29;1049;-83
2023/01/31 00:46:22;;;;;;;15.98;4.18;;;;;;;6.12;59.68;101757.75;682930;28;1980;-83
2023/01/31 00:46:43;;;;;;;20.75;4.72;;;;;;;6.09;59.95;101754.09;682743;28;1218;-83
2023/01/31 00:47:04;;;;;;;16.80;4.15;;;;;;;6.22;59.55;101771.28;680209;29;1090;-83
2023/01/31 00:47:25;;;;;;;14.75;3.70;;;;;;;6.09;59.52;101756.69;680305;29;1085;-83
2023/01/31 00:47:45;;;;;;;11.83;3.30;;;;;;;6.09;59.83;101754.09;682768;29;1118;-83
2023/01/31 00:48:06;;;;;;;13.75;3.85;;;;;;;6.00;59.91;101750.13;682749;29;1107;-81
2023/01/31 00:48:26;;;;;;;17.33;4.25;;;;;;;6.02;59.38;101742.44;685613;28;1175;-83
2023/01/31 00:48:47;;;;;;;21.47;4.60;;;;;;;6.08;59.70;101770.44;682820;28;1184;-83
2023/01/31 00:49:08;;;;;;;20.38;4.32;;;;;;;5.99;60.04;101753.50;682774;28;1171;-83
2023/01/31 00:49:29;;;;;;;18.48;4.40;;;;;;;5.96;59.94;101755.00;682770;28;1285;-84
2023/01/31 00:49:49;;;;;;;16.52;4.25;;;;;;;6.00;59.82;101755.31;680252;29;1096;-83
2023/01/31 00:50:13;;;;;;;18.07;4.10;;;;;;;5.98;59.88;101756.91;680131;29;1192;-83
2023/01/31 00:50:34;;;;;;;16.55;3.90;;;;;;;6.03;59.71;101759.78;680173;29;1054;-82
2023/01/31 00:50:54;;;;;;;14.60;3.60;;;;;;;5.94;59.84;101738.50;682974;29;836;-83
2023/01/31 00:51:16;;;;;;;17.75;3.72;;;;;;;5.95;59.96;101748.94;687953;28;1244;-83
2023/01/31 00:51:36;;;;;;;19.95;4.50;;;;;;;5.97;59.71;101744.75;688181;28;1274;-83
2023/01/31 00:51:57;;;;;;;21.08;5.00;;;;;;;6.06;59.91;101774.63;685445;28;937;-82
2023/01/31 00:52:18;;;;;;;18.90;5.00;;;;;;;5.93;60.26;101755.72;688036;28;1214;-83
2023/01/31 00:52:40;;;;;;;18.45;4.13;;;;;;;5.96;60.10;101753.31;679972;29;1372;-82
2023/01/31 00:53:01;;;;;;;20.60;4.77;;;;;;;6.06;60.26;101769.47;680362;29;808;-83
2023/01/31 00:53:22;;;;;;;19.33;4.90;;;;;;;5.93;59.94;101752.22;682816;28;1189;-83
2023/01/31 00:53:43;;;;;;;19.83;4.88;;;;;;;5.86;60.09;101751.84;685341;28;1229;-82
2023/01/31 00:54:04;;;;;;;16.00;4.13;;;;;;;5.96;60.32;101758.47;685495;28;1305;-83
2023/01/31 00:54:24;;;;;;;15.85;3.90;;;;;;;5.97;60.36;101755.13;682756;28;1237;-82
2023/01/31 00:54:46;;;;;;;15.45;4.28;;;;;;;5.95;60.28;101758.41;679958;28;1398;-82
2023/01/31 00:55:07;;;;;;;15.88;4.05;;;;;;;5.91;59.98;101749.56;682852;29;1017;-82
2023/01/31 00:55:28;;;;;;;17.65;4.05;;;;;;;5.85;59.98;101754.34;679914;29;1276;-82
2023/01/31 00:55:51;;;;;;;18.25;3.50;;;;;;;5.94;60.15;101761.81;680219;29;1367;-83
2023/01/31 00:56:14;;;;;;;15.77;3.55;;;;;;;5.89;60.10;101759.81;682638;29;1343;-82
2023/01/31 00:56:36;;;;;;;14.13;3.63;;;;;;;5.86;60.07;101740.56;685457;28;1074;-83
2023/01/31 00:56:57;;;;;;;14.90;3.80;;;;;;;5.86;60.41;101750.94;685296;28;1275;-83
2023/01/31 00:57:18;;;;;;;14.90;3.63;;;;;;;5.87;60.10;101747.53;682738;29;1217;-82
2023/01/31 00:57:39;;;;;;;16.63;4.07;;;;;;;5.81;60.53;101748.06;685460;28;1113;-82
2023/01/31 00:58:00;;;;;;;16.10;4.40;;;;;;;5.83;59.99;101753.34;685672;28;744;-83
2023/01/31 00:58:21;;;;;;;17.15;4.60;;;;;;;5.92;60.41;101761.69;682700;29;1315;-83
2023/01/31 00:58:42;;;;;;;16.50;4.20;;;;;;;5.94;60.42;101749.72;685418;28;1127;-82
2023/01/31 00:59:07;;;;;;;17.65;4.10;;;;;;;5.87;60.28;101747.53;684764;28;1299;-83
2023/01/31 00:59:28;;;;;;;18.23;4.13;;;;;;;5.91;60.31;101751.22;682809;29;1211;-83
2023/01/31 00:59:48;;;;;;;19.58;4.10;;;;;;;5.96;60.32;101762.78;682792;28;995;-83
2023/01/31 01:00:10;;;;;;;17.42;4.10;;;;;;;5.80;60.10;101742.78;677474;29;1018;-82
2023/01/31 01:00:31;;;;;;;15.38;4.20;;;;;;;5.82;60.10;101746.38;677534;29;1150;-83
2023/01/31 01:00:51;;;;;;;18.02;4.30;;;;;;;5.86;59.94;101757.03;680201;29;1202;-83
2023/01/31 01:01:17;;;;;;;18.30;4.20;;;;;;;5.78;59.91;101752.16;679973;29;1198;-83
2023/01/31 01:01:39;;;;;;;17.23;4.00;;;;;;;5.88;60.17;101764.88;680104;29;990;-83
2023/01/31 01:02:00;;;;;;;20.25;4.18;;;;;;;5.81;60.24;101757.50;682947;29;764;-82
2023/01/31 01:02:20;;;;;;;20.85;4.43;;;;;;;5.83;60.11;101755.94;680085;29;1202;-83
2023/01/31 01:02:41;;;;;;;20.15;4.32;;;;;;;5.75;60.41;101746.00;682635;29;1165;-82
2023/01/31 01:03:01;;;;;;;16.97;4.43;;;;;;;5.75;60.33;101751.16;680194;29;1199;-83
2023/01/31 01:03:22;;;;;;;17.23;4.20;;;;;;;5.71;60.02;101750.88;681748;29;1297;-82
2023/01/31 01:03:44;;;;;;;18.75;4.15;;;;;;;5.73;60.16;101750.19;680019;29;1244;-82
2023/01/31 01:04:05;;;;;;;17.80;3.95;;;;;;;5.79;60.25;101760.03;682855;29;1133;-83
2023/01/31 01:04:27;;;;;;;19.85;4.30;;;;;;;5.69;60.26;101748.19;685364;28;1319;-83
2023/01/31 01:04:48;;;;;;;19.33;4.32;;;;;;;5.77;60.11;101756.41;688104;28;1383;-83
2023/01/31 01:05:09;;;;;;;20.05;4.10;;;;;;;5.74;59.91;101751.97;682701;29;1104;-83
2023/01/31 01:05:29;;;;;;;18.17;3.60;;;;;;;5.79;60.68;101769.47;682664;29;1309;-83
2023/01/31 01:05:50;;;;;;;14.18;3.70;;;;;;;5.72;60.43;101761.31;680253;29;990;-83
2023/01/31 01:06:11;;;;;;;18.83;4.28;;;;;;;5.69;60.51;101748.19;679964;29;1910;-82
2023/01/31 01:06:32;;;;;;;18.67;4.90;;;;;;;5.77;60.79;101755.53;682584;29;1170;-82
2023/01/31 01:06:53;;;;;;;22.40;5.05;;;;;;;5.77;60.66;101766.78;685197;28;1381;-82
2023/01/31 01:07:14;;;;;;;18.80;4.82;;;;;;;5.78;60.71;101768.59;682746;29;1423;-82
2023/01/31 01:07:35;;;;;;;21.67;4.50;;;;;;;5.81;60.29;101757.50;680054;29;1244;-82
2023/01/31 01:07:55;;;;;;;20.38;4.40;;;;;;;5.81;60.85;101757.50;682851;29;1167;-83
2023/01/31 01:08:17;;;;;;;19.67;4.53;;;;;;;5.85;60.49;101759.53;682685;29;1391;-82
2023/01/31 01:08:40;;;;;;;18.50;4.32;;;;;;;5.91;60.66;101770.28;680088;29;1277;-83
2023/01/31 01:09:02;;;;;;;17.92;4.10;;;;;;;5.91;60.63;101756.41;677571;29;1155;-82
2023/01/31 01:09:22;;;;;;;19.40;3.90;;;;;;;5.95;60.28;101768.78;680018;29;1465;-83
2023/01/31 01:09:43;;;;;;;17.67;4.28;;;;;;;5.96;60.38;101758.47;680039;29;1456;-82
2023/01/31 01:10:05;;;;;;;20.60;4.65;;;;;;;6.00;60.43;101762.16;682840;28;1161;-83
2023/01/31 01:10:26;;;;;;;17.50;4.38;;;;;;;6.04;60.26;101766.75;682797;28;1322;-83
2023/01/31 01:10:46;;;;;;;16.40;4.70;;;;;;;6.00;60.15;101763.06;682757;29;1189;-83
2023/01/31 01:11:17;;;;;;;13.40;4.40;;;;;;;5.98;60.70;101756.00;682757;29;1056;-83
2023/01/31 01:11:37;;;;;;;16.27;4.20;;;;;;;5.99;60.36;101758.69;682641;29;1172;-83
2023/01/31 01:11:58;;;;;;;14.85;4.10;;;;;;;6.00;60.17;101762.16;682930;29;1009;-83
2023/01/31 01:12:19;;;;;;;17.80;3.90;;;;;;;6.03;60.15;101770.16;677471;29;1089;-82
2023/01/31 01:12:41;;;;;;;17.27;4.15;;;;;;;6.09;59.83;101761.84;677291;29;1072;-82
2023/01/31 01:13:01;;;;;;;18.60;4.60;;;;;;;5.98;60.00;101756.00;677739;29;879;-82
2023/01/31 01:13:23;;;;;;;17.90;4.75;;;;;;;5.98;60.03;101766.38;680079;29;1284;-83
2023/01/31 01:13:44;;;;;;;14.25;4.53;;;;;;;5.95;59.89;101751.50;679981;29;1498;-83
2023/01/31 01:14:05;;;;;;;16.48;4.47;;;;;;;5.95;59.90;101751.50;682728;29;1368;-82
2023/01/31 01:14:25;;;;;;;17.13;4.07;;;;;;;5.99;60.18;101758.69;682898;29;791;-83
2023/01/31 01:14:46;;;;;;;21.83;4.20;;;;;;;5.93;59.96;101745.34;680088;29;1039;-83
2023/01/31 01:15:07;;;;;;;19.85;4.30;;;;;;;5.97;59.88;101767.16;682765;29;1218;-83
2023/01/31 01:15:27;;;;;;;21.38;4.70;;;;;;;5.98;59.90;101761.19;680043;29;1064;-83
2023/01/31 01:15:48;;;;;;;19.92;4.82;;;;;;;5.99;59.73;101758.69;680234;29;1296;-83
2023/01/31 01:16:16;;;;;;;19.58;4.80;;;;;;;5.99;59.99;101755.19;680048;29;1383;-83
2023/01/31 01:16:41;;;;;;;16.65;4.30;;;;;;;5.93;60.26;101768.66;682535;29;1205;-82
2023/01/31 01:17:01;;;;;;;11.90;3.75;;;;;;;5.96;59.94;101768.84;685369;28;879;-83
2023/01/31 01:17:22;;;;;;;13.68;3.67;;;;;;;5.97;60.41;101775.84;680278;29;1081;-83
2023/01/31 01:17:42;;;;;;;17.02;3.70;;;;;;;5.96;60.09;101763.66;682717;29;1156;-82
2023/01/31 01:18:03;;;;;;;18.87;3.47;;;;;;;5.97;60.10;101773.25;685438;28;1165;-83
2023/01/31 01:18:24;;;;;;;14.82;3.40;;;;;;;5.81;60.05;101762.69;688106;28;1176;-82
2023/01/31 01:18:47;;;;;;;12.43;3.53;;;;;;;5.83;60.82;101763.72;685277;28;1211;-82
2023/01/31 01:19:11;;;;;;;9.95;3.65;;;;;;;5.82;60.50;101761.94;682643;28;1303;-83
2023/01/31 01:19:33;;;;;;;12.85;3.90;;;;;;;5.86;60.73;101761.31;687923;28;1494;-83
2023/01/31 01:19:53;;;;;;;14.15;4.47;;;;;;;5.91;60.16;101764.19;688136;28;1222;-83
2023/01/31 01:20:14;;;;;;;13.45;4.32;;;;;;;5.94;60.56;101767.88;685294;28;1235;-83
2023/01/31 01:20:35;;;;;;;14.30;4.50;;;;;;;5.96;60.55;101761.06;679965;29;1181;-83
2023/01/31 01:20:57;;;;;;;14.55;3.90;;;;;;;5.97;60.67;101764.56;685340;28;1024;-82
2023/01/31 01:21:20;;;;;;;15.93;4.40;;;;;;;5.95;60.91;101761.88;685228;28;1286;-82
2023/01/31 01:21:43;;;;;;;16.63;4.80;;;;;;;6.00;60.67;101769.94;682655;29;996;-83
2023/01/31 01:22:03;;;;;;;22.63;4.93;;;;;;;6.00;60.53;101754.38;685466;28;1378;-83
2023/01/31 01:22:24;;;;;;;25.33;4.45;;;;;;;5.98;60.13;101754.31;682551;29;1223;-83
2023/01/31 01:22:45;;;;;;;23.90;4.10;;;;;;;6.00;60.52;101742.34;680182;29;1216;-83
2023/01/31 01:23:05;;;;;;;17.30;3.80;;;;;;;6.02;60.31;101758.88;680077;29;1148;-82
2023/01/31 01:23:26;;;;;;;15.00;3.95;;;;;;;6.06;60.07;101751.31;680205;29;1255;-83
2023/01/31 01:23:49;;;;;;;14.63;4.18;;;;;;;6.13;60.25;101766.41;680113;29;1168;-83
2023/01/31 01:24:16;;;;;;;15.50;4.80;;;;;;;6.04;60.29;101758.97;680028;29;1391;-83
2023/01/31 01:24:37;;;;;;;13.30;4.40;;;;;;;6.09;60.12;101759.25;680063;29;1081;-83
2023/01/31 01:24:58;;;;;;;14.90;4.20;;;;;;;6.07;60.15;101759.16;682973;28;780;-83
2023/01/31 01:25:19;;;;;;;15.70;4.68;;;;;;;6.08;60.36;101773.03;682621;29;1512;-83
2023/01/31 01:25:42;;;;;;;18.25;5.00;;;;;;;6.15;60.36;101767.44;677489;29;1269;-83
2023/01/31 01:26:04;;;;;;;16.60;5.18;;;;;;;6.10;60.02;101755.88;685423;28;1124;-83
2023/01/31 01:26:30;;;;;;;15.57;4.88;;;;;;;6.15;59.89;101759.66;687893;28;1922;-83
2023/01/31 01:26:51;;;;;;;18.45;4.80;;;;;;;6.11;59.75;101753.38;687908;28;1101;-82
2023/01/31 01:27:12;;;;;;;21.33;4.70;;;;;;;6.16;59.91;101764.91;685211;28;1141;-82
2023/01/31 01:27:33;;;;;;;18.77;4.57;;;;;;;6.08;60.27;101747.13;682876;28;1382;-83
2023/01/31 01:27:53;;;;;;;18.65;4.35;;;;;;;6.17;59.71;101760.63;682942;29;752;-83
2023/01/31 01:28:14;;;;;;;19.20;4.50;;;;;;;6.16;59.70;101753.66;682571;29;1224;-82
2023/01/31 01:28:35;;;;;;;19.45;4.55;;;;;;;6.10;60.10;101761.06;680019;29;1208;-83
2023/01/31 01:28:57;;;;;;;18.00;4.90;;;;;;;6.16;60.10;101751.06;682843;29;1015;-83
2023/01/31 01:29:17;;;;;;;20.85;5.20;;;;;;;6.13;60.08;101750.88;682706;29;1098;-82
2023/01/31 01:29:39;;;;;;;21.80;5.10;;;;;;;6.14;60.10;101743.19;685304;28;1291;-82
2023/01/31 01:30:00;;;;;;;24.13;5.07;;;;;;;6.20;59.94;101755.63;685505;28;831;-82
2023/01/31 01:30:21;;;;;;;21.25;5.10;;;;;;;6.17;60.33;101747.69;685447;28;1138;-83
2023/01/31 01:30:42;;;;;;;21.23;5.20;;;;;;;6.25;59.79;101764.59;685421;28;1156;-83
2023/01/31 01:31:05;;;;;;;21.60;5.40;;;;;;;6.15;60.33;101744.09;685337;28;1186;-82
2023/01/31 01:31:30;;;;;;;22.90;5.38;;;;;;;6.17;60.12;101747.69;685378;28;1291;-82
2023/01/31 01:31:51;;;;;;;20.02;5.22;;;;;;;6.23;60.38;101752.34;683168;28;1142;-82
2023/01/31 01:32:12;;;;;;;18.95;4.82;;;;;;;6.35;60.53;101762.56;683233;29;1041;-83
2023/01/31 01:32:32;;;;;;;23.57;5.10;;;;;;;6.38;60.25;101749.81;680449;29;1155;-82
2023/01/31 01:32:55;;;;;;;25.60;5.13;;;;;;;6.34;60.25;101740.03;678008;29;1071;-83
2023/01/31 01:33:15;;;;;;;22.20;4.80;;;;;;;6.39;59.83;101738.63;677901;29;1231;-81
2023/01/31 01:33:36;;;;;;;16.03;4.30;;;;;;;6.50;59.68;101753.13;678421;29;1107;-83
2023/01/31 01:33:58;;;;;;;17.83;4.25;;;;;;;6.52;59.67;101751.50;680649;29;1219;-82
2023/01/31 01:34:19;;;;;;;22.63;4.75;;;;;;;6.45;59.47;101746.78;680558;29;1027;-83
2023/01/31 01:34:39;;;;;;;28.58;5.20;;;;;;;6.45;59.56;101739.00;681353;29;1216;-83
2023/01/31 01:35:00;;;;;;;27.98;5.38;;;;;;;6.50;59.31;101763.50;680580;29;1177;-83
2023/01/31 01:35:20;;;;;;;24.27;5.20;;;;;;;6.42;59.63;101738.81;680526;29;1315;-83
2023/01/31 01:35:41;;;;;;;18.15;4.90;;;;;;;6.42;59.63;101747.50;680387;29;1172;-83
2023/01/31 01:36:08;;;;;;;17.45;4.45;;;;;;;6.35;59.28;101752.19;683400;29;804;-82
2023/01/31 01:36:32;;;;;;;20.15;4.10;;;;;;;6.28;59.53;101727.59;683063;29;2006;-83
2023/01/31 01:36:53;;;;;;;18.17;4.40;;;;;;;6.34;59.41;101745.22;683078;29;1210;-82
2023/01/31 01:37:18;;;;;;;18.67;4.53;;;;;;;6.30;59.22;101729.50;688543;28;1278;-82
2023/01/31 01:37:39;;;;;;;20.05;4.22;;;;;;;6.29;59.29;101742.34;688591;28;1132;-83
2023/01/31 01:38:00;;;;;;;22.97;4.70;;;;;;;6.27;58.96;101744.84;683289;29;1195;-82
2023/01/31 01:38:22;;;;;;;19.65;4.63;;;;;;;6.24;59.42;101741.16;682421;29;1337;-83
2023/01/31 01:38:44;;;;;;;18.07;4.83;;;;;;;6.13;59.06;101731.03;685863;28;1181;-83
2023/01/31 01:39:07;;;;;;;18.33;4.60;;;;;;;6.11;59.39;101731.75;685944;28;1240;-82
2023/01/31 01:39:29;;;;;;;16.10;4.70;;;;;;;6.08;59.39;101742.81;685825;28;1052;-82
2023/01/31 01:39:51;;;;;;;15.95;4.40;;;;;;;6.05;59.51;101736.53;683087;29;1522;-83
2023/01/31 01:40:12;;;;;;;14.20;4.72;;;;;;;6.07;59.53;101745.31;685788;28;1268;-82
2023/01/31 01:40:36;;;;;;;16.45;4.60;;;;;;;6.06;59.56;101743.53;683179;29;1148;-83
2023/01/31 01:40:57;;;;;;;17.85;4.78;;;;;;;6.02;59.78;101743.31;683273;29;1127;-83
2023/01/31 01:41:19;;;;;;;20.10;4.50;;;;;;;6.07;59.87;101753.09;683215;29;1147;-83
2023/01/31 01:41:40;;;;;;;20.95;4.60;;;;;;;6.06;59.75;101747.00;683020;29;1290;-82
2023/01/31 01:42:02;;;;;;;20.05;5.05;;;;;;;5.99;60.08;101747.41;678010;29;1360;-83
2023/01/31 01:42:24;;;;;;;20.75;5.38;;;;;;;6.01;59.87;101746.72;680506;29;1133;-83
2023/01/31 01:42:45;;;;;;;22.35;5.97;;;;;;;5.99;59.80;101742.25;680507;29;1213;-83
2023/01/31 01:43:10;;;;;;;19.63;5.57;;;;;;;5.98;60.08;101738.78;677899;29;1307;-83